sensor_id;sensor_type;location;lat;lon;timestamp;temperature;humidity
19248;DHT22;9758;48.640;8.148;2022-07-21T00:00:21;24.00;41.40
19248;DHT22;9758;48.640;8.148;2022-07-21T00:02:49;23.90;41.40
19248;DHT22;9758;48.640;8.148;2022-07-21T00:05:16;23.90;41.40
19248;DHT22;9758;48.640;8.148;2022-07-21T00:07:43;23.80;41.40
19248;DHT22;9758;48.640;8.148;2022-07-21T00:10:12;23.80;41.50
19248;DHT22;9758;48.640;8.148;2022-07-21T00:12:39;23.70;41.60
19248;DHT22;9758;48.640;8.148;2022-07-21T00:15:09;23.70;41.60
19248;DHT22;9758;48.640;8.148;2022-07-21T00:17:36;23.60;41.60
19248;DHT22;9758;48.640;8.148;2022-07-21T00:20:05;23.60;41.70
19248;DHT22;9758;48.640;8.148;2022-07-21T00:22:32;23.50;41.90
19248;DHT22;9758;48.640;8.148;2022-07-21T00:24:59;23.50;41.90
19248;DHT22;9758;48.640;8.148;2022-07-21T00:27:25;23.50;42.00
19248;DHT22;9758;48.640;8.148;2022-07-21T00:29:52;23.50;42.00
19248;DHT22;9758;48.640;8.148;2022-07-21T00:32:20;23.50;42.00
19248;DHT22;9758;48.640;8.148;2022-07-21T00:34:47;23.40;42.00
19248;DHT22;9758;48.640;8.148;2022-07-21T00:37:14;23.40;42.10
19248;DHT22;9758;48.640;8.148;2022-07-21T00:39:40;23.40;42.10
19248;DHT22;9758;48.640;8.148;2022-07-21T00:42:07;23.40;42.20
19248;DHT22;9758;48.640;8.148;2022-07-21T00:44:34;23.40;42.20
19248;DHT22;9758;48.640;8.148;2022-07-21T00:47:00;23.40;42.30
19248;DHT22;9758;48.640;8.148;2022-07-21T00:49:28;23.30;42.20
19248;DHT22;9758;48.640;8.148;2022-07-21T00:51:56;23.40;42.30
19248;DHT22;9758;48.640;8.148;2022-07-21T00:54:22;23.30;42.40
19248;DHT22;9758;48.640;8.148;2022-07-21T00:56:49;23.40;42.70
19248;DHT22;9758;48.640;8.148;2022-07-21T00:59:16;23.40;42.50
19248;DHT22;9758;48.640;8.148;2022-07-21T01:01:42;23.40;42.60
19248;DHT22;9758;48.640;8.148;2022-07-21T01:04:09;23.40;42.60
19248;DHT22;9758;48.640;8.148;2022-07-21T01:06:37;23.40;42.60
19248;DHT22;9758;48.640;8.148;2022-07-21T01:09:04;23.50;42.70
19248;DHT22;9758;48.640;8.148;2022-07-21T01:11:31;23.50;42.60
19248;DHT22;9758;48.640;8.148;2022-07-21T01:13:58;23.50;42.60
19248;DHT22;9758;48.640;8.148;2022-07-21T01:16:25;23.50;42.70
19248;DHT22;9758;48.640;8.148;2022-07-21T01:18:51;23.50;42.70
19248;DHT22;9758;48.640;8.148;2022-07-21T01:21:29;23.50;42.70
19248;DHT22;9758;48.640;8.148;2022-07-21T01:23:56;23.50;42.80
19248;DHT22;9758;48.640;8.148;2022-07-21T01:26:23;23.50;42.70
19248;DHT22;9758;48.640;8.148;2022-07-21T01:28:50;23.50;42.80
19248;DHT22;9758;48.640;8.148;2022-07-21T01:31:17;23.50;42.80
19248;DHT22;9758;48.640;8.148;2022-07-21T01:33:44;23.50;42.90
19248;DHT22;9758;48.640;8.148;2022-07-21T01:36:12;23.40;42.80
19248;DHT22;9758;48.640;8.148;2022-07-21T01:38:40;23.50;43.00
19248;DHT22;9758;48.640;8.148;2022-07-21T01:41:24;23.50;43.00
19248;DHT22;9758;48.640;8.148;2022-07-21T01:44:00;23.50;43.10
19248;DHT22;9758;48.640;8.148;2022-07-21T01:46:29;23.50;43.10
19248;DHT22;9758;48.640;8.148;2022-07-21T01:48:56;23.50;43.00
19248;DHT22;9758;48.640;8.148;2022-07-21T01:51:24;23.50;43.10
19248;DHT22;9758;48.640;8.148;2022-07-21T01:53:52;23.50;43.60
19248;DHT22;9758;48.640;8.148;2022-07-21T01:56:20;23.50;43.00
19248;DHT22;9758;48.640;8.148;2022-07-21T01:58:48;23.50;43.10
19248;DHT22;9758;48.640;8.148;2022-07-21T02:01:15;23.50;43.10
19248;DHT22;9758;48.640;8.148;2022-07-21T02:03:42;23.50;43.10
19248;DHT22;9758;48.640;8.148;2022-07-21T02:06:09;23.50;43.00
19248;DHT22;9758;48.640;8.148;2022-07-21T02:08:36;23.60;43.10
19248;DHT22;9758;48.640;8.148;2022-07-21T02:11:06;23.60;43.20
19248;DHT22;9758;48.640;8.148;2022-07-21T02:13:32;23.60;43.10
19248;DHT22;9758;48.640;8.148;2022-07-21T02:15:59;23.60;43.10
19248;DHT22;9758;48.640;8.148;2022-07-21T02:18:26;23.60;43.10
19248;DHT22;9758;48.640;8.148;2022-07-21T02:20:53;23.60;43.20
19248;DHT22;9758;48.640;8.148;2022-07-21T02:23:20;23.60;43.10
19248;DHT22;9758;48.640;8.148;2022-07-21T02:25:48;23.60;43.20
19248;DHT22;9758;48.640;8.148;2022-07-21T02:28:16;23.60;43.30
19248;DHT22;9758;48.640;8.148;2022-07-21T02:30:42;23.60;43.20
19248;DHT22;9758;48.640;8.148;2022-07-21T02:33:09;23.70;43.30
19248;DHT22;9758;48.640;8.148;2022-07-21T02:35:36;23.60;43.20
19248;DHT22;9758;48.640;8.148;2022-07-21T02:38:03;23.60;43.20
19248;DHT22;9758;48.640;8.148;2022-07-21T02:40:30;23.70;43.30
19248;DHT22;9758;48.640;8.148;2022-07-21T02:42:57;23.70;43.40
19248;DHT22;9758;48.640;8.148;2022-07-21T02:45:25;23.60;43.30
19248;DHT22;9758;48.640;8.148;2022-07-21T02:47:53;23.60;43.30
19248;DHT22;9758;48.640;8.148;2022-07-21T02:50:22;23.60;43.30
19248;DHT22;9758;48.640;8.148;2022-07-21T02:52:49;23.70;43.30
19248;DHT22;9758;48.640;8.148;2022-07-21T02:55:16;23.70;43.40
19248;DHT22;9758;48.640;8.148;2022-07-21T02:57:42;23.70;43.40
19248;DHT22;9758;48.640;8.148;2022-07-21T03:00:10;23.70;43.40
19248;DHT22;9758;48.640;8.148;2022-07-21T03:02:38;23.60;43.40
19248;DHT22;9758;48.640;8.148;2022-07-21T03:05:05;23.60;43.50
19248;DHT22;9758;48.640;8.148;2022-07-21T03:07:32;23.60;43.50
19248;DHT22;9758;48.640;8.148;2022-07-21T03:09:59;23.60;43.60
19248;DHT22;9758;48.640;8.148;2022-07-21T03:12:26;23.60;43.60
19248;DHT22;9758;48.640;8.148;2022-07-21T03:14:52;23.60;43.70
19248;DHT22;9758;48.640;8.148;2022-07-21T03:17:19;23.60;43.70
19248;DHT22;9758;48.640;8.148;2022-07-21T03:19:47;23.60;43.70
19248;DHT22;9758;48.640;8.148;2022-07-21T03:22:14;23.60;43.70
19248;DHT22;9758;48.640;8.148;2022-07-21T03:24:40;23.60;43.80
19248;DHT22;9758;48.640;8.148;2022-07-21T03:27:07;23.60;43.80
19248;DHT22;9758;48.640;8.148;2022-07-21T03:29:34;23.60;43.80
19248;DHT22;9758;48.640;8.148;2022-07-21T03:32:01;23.60;43.80
19248;DHT22;9758;48.640;8.148;2022-07-21T03:34:27;23.60;43.90
19248;DHT22;9758;48.640;8.148;2022-07-21T03:36:55;23.60;43.90
19248;DHT22;9758;48.640;8.148;2022-07-21T03:39:22;23.60;43.90
19248;DHT22;9758;48.640;8.148;2022-07-21T03:41:49;23.50;43.90
19248;DHT22;9758;48.640;8.148;2022-07-21T03:44:15;23.50;44.00
19248;DHT22;9758;48.640;8.148;2022-07-21T03:46:42;23.50;44.10
19248;DHT22;9758;48.640;8.148;2022-07-21T03:49:09;23.50;44.10
19248;DHT22;9758;48.640;8.148;2022-07-21T03:51:36;23.40;44.00
19248;DHT22;9758;48.640;8.148;2022-07-21T03:54:04;23.40;44.20
19248;DHT22;9758;48.640;8.148;2022-07-21T03:56:31;23.40;44.20
19248;DHT22;9758;48.640;8.148;2022-07-21T03:58:58;23.30;44.20
19248;DHT22;9758;48.640;8.148;2022-07-21T04:01:24;23.30;44.30
19248;DHT22;9758;48.640;8.148;2022-07-21T04:03:51;23.30;45.00
19248;DHT22;9758;48.640;8.148;2022-07-21T04:06:18;23.30;44.50
19248;DHT22;9758;48.640;8.148;2022-07-21T04:08:45;23.20;44.40
19248;DHT22;9758;48.640;8.148;2022-07-21T04:11:13;23.30;44.50
19248;DHT22;9758;48.640;8.148;2022-07-21T04:13:39;23.30;44.50
19248;DHT22;9758;48.640;8.148;2022-07-21T04:16:15;23.30;44.50
19248;DHT22;9758;48.640;8.148;2022-07-21T04:18:42;23.20;45.20
19248;DHT22;9758;48.640;8.148;2022-07-21T04:21:09;23.20;44.50
19248;DHT22;9758;48.640;8.148;2022-07-21T04:23:36;23.20;44.60
19248;DHT22;9758;48.640;8.148;2022-07-21T04:26:02;23.20;44.70
19248;DHT22;9758;48.640;8.148;2022-07-21T04:28:30;23.20;44.70
19248;DHT22;9758;48.640;8.148;2022-07-21T04:30:57;23.20;44.80
19248;DHT22;9758;48.640;8.148;2022-07-21T04:33:24;23.20;44.80
19248;DHT22;9758;48.640;8.148;2022-07-21T04:35:50;23.20;44.80
19248;DHT22;9758;48.640;8.148;2022-07-21T04:38:17;23.30;44.90
19248;DHT22;9758;48.640;8.148;2022-07-21T04:40:44;23.30;44.90
19248;DHT22;9758;48.640;8.148;2022-07-21T04:43:11;23.30;44.90
19248;DHT22;9758;48.640;8.148;2022-07-21T04:45:39;23.30;44.90
19248;DHT22;9758;48.640;8.148;2022-07-21T04:48:05;23.30;44.90
19248;DHT22;9758;48.640;8.148;2022-07-21T04:50:32;23.40;44.90
19248;DHT22;9758;48.640;8.148;2022-07-21T04:52:59;23.30;44.90
19248;DHT22;9758;48.640;8.148;2022-07-21T04:55:26;23.40;45.00
19248;DHT22;9758;48.640;8.148;2022-07-21T04:57:53;23.40;44.90
19248;DHT22;9758;48.640;8.148;2022-07-21T05:00:22;23.40;45.00
19248;DHT22;9758;48.640;8.148;2022-07-21T05:02:52;23.40;44.90
19248;DHT22;9758;48.640;8.148;2022-07-21T05:05:19;23.40;44.90
19248;DHT22;9758;48.640;8.148;2022-07-21T05:07:46;23.40;44.90
19248;DHT22;9758;48.640;8.148;2022-07-21T05:10:14;23.40;44.90
19248;DHT22;9758;48.640;8.148;2022-07-21T05:12:41;23.40;44.90
19248;DHT22;9758;48.640;8.148;2022-07-21T05:15:10;23.40;45.60
19248;DHT22;9758;48.640;8.148;2022-07-21T05:17:37;23.50;45.00
19248;DHT22;9758;48.640;8.148;2022-07-21T05:20:07;23.50;45.00
19248;DHT22;9758;48.640;8.148;2022-07-21T05:22:34;23.50;44.90
19248;DHT22;9758;48.640;8.148;2022-07-21T05:25:01;23.50;44.90
19248;DHT22;9758;48.640;8.148;2022-07-21T05:27:27;23.50;44.90
19248;DHT22;9758;48.640;8.148;2022-07-21T05:29:54;23.50;45.00
19248;DHT22;9758;48.640;8.148;2022-07-21T05:32:21;23.50;45.00
19248;DHT22;9758;48.640;8.148;2022-07-21T05:34:48;23.60;45.10
19248;DHT22;9758;48.640;8.148;2022-07-21T05:37:16;23.60;45.10
19248;DHT22;9758;48.640;8.148;2022-07-21T05:39:42;23.70;45.10
19248;DHT22;9758;48.640;8.148;2022-07-21T05:42:09;23.70;45.10
19248;DHT22;9758;48.640;8.148;2022-07-21T05:44:36;23.80;45.10
19248;DHT22;9758;48.640;8.148;2022-07-21T05:47:03;23.80;45.10
19248;DHT22;9758;48.640;8.148;2022-07-21T05:49:29;23.80;45.00
19248;DHT22;9758;48.640;8.148;2022-07-21T05:51:56;23.90;45.00
19248;DHT22;9758;48.640;8.148;2022-07-21T05:54:24;24.00;45.10
19248;DHT22;9758;48.640;8.148;2022-07-21T05:56:51;24.00;45.00
19248;DHT22;9758;48.640;8.148;2022-07-21T05:59:17;24.10;45.10
19248;DHT22;9758;48.640;8.148;2022-07-21T06:01:44;24.10;45.00
19248;DHT22;9758;48.640;8.148;2022-07-21T06:04:11;24.10;45.00
19248;DHT22;9758;48.640;8.148;2022-07-21T06:06:38;24.20;44.90
19248;DHT22;9758;48.640;8.148;2022-07-21T06:09:05;24.20;44.90
19248;DHT22;9758;48.640;8.148;2022-07-21T06:11:33;24.10;44.90
19248;DHT22;9758;48.640;8.148;2022-07-21T06:14:00;24.10;44.80
19248;DHT22;9758;48.640;8.148;2022-07-21T06:16:26;24.20;45.00
19248;DHT22;9758;48.640;8.148;2022-07-21T06:18:53;24.20;45.00
19248;DHT22;9758;48.640;8.148;2022-07-21T06:21:20;24.30;45.00
19248;DHT22;9758;48.640;8.148;2022-07-21T06:23:47;24.30;44.90
19248;DHT22;9758;48.640;8.148;2022-07-21T06:26:13;24.30;44.80
19248;DHT22;9758;48.640;8.148;2022-07-21T06:28:41;24.30;44.90
19248;DHT22;9758;48.640;8.148;2022-07-21T06:31:08;24.30;44.70
19248;DHT22;9758;48.640;8.148;2022-07-21T06:33:43;24.40;44.80
19248;DHT22;9758;48.640;8.148;2022-07-21T06:36:10;24.40;44.80
19248;DHT22;9758;48.640;8.148;2022-07-21T06:38:36;24.40;44.70
19248;DHT22;9758;48.640;8.148;2022-07-21T06:41:03;24.40;44.70
19248;DHT22;9758;48.640;8.148;2022-07-21T06:43:32;24.40;44.70
19248;DHT22;9758;48.640;8.148;2022-07-21T06:46:00;24.50;44.80
19248;DHT22;9758;48.640;8.148;2022-07-21T06:48:27;24.60;44.80
19248;DHT22;9758;48.640;8.148;2022-07-21T06:50:56;24.70;44.80
19248;DHT22;9758;48.640;8.148;2022-07-21T06:53:23;24.70;44.60
19248;DHT22;9758;48.640;8.148;2022-07-21T06:55:50;24.80;44.60
19248;DHT22;9758;48.640;8.148;2022-07-21T06:58:19;24.80;44.50
19248;DHT22;9758;48.640;8.148;2022-07-21T07:00:47;24.80;44.50
19248;DHT22;9758;48.640;8.148;2022-07-21T07:03:17;24.80;44.50
19248;DHT22;9758;48.640;8.148;2022-07-21T07:05:46;24.90;44.50
19248;DHT22;9758;48.640;8.148;2022-07-21T07:08:13;24.90;44.50
19248;DHT22;9758;48.640;8.148;2022-07-21T07:10:40;25.00;44.50
19248;DHT22;9758;48.640;8.148;2022-07-21T07:13:08;25.10;44.50
19248;DHT22;9758;48.640;8.148;2022-07-21T07:15:35;25.10;44.30
19248;DHT22;9758;48.640;8.148;2022-07-21T07:18:02;25.20;44.30
19248;DHT22;9758;48.640;8.148;2022-07-21T07:20:31;25.20;44.20
19248;DHT22;9758;48.640;8.148;2022-07-21T07:22:58;25.20;44.20
19248;DHT22;9758;48.640;8.148;2022-07-21T07:25:25;25.20;44.20
19248;DHT22;9758;48.640;8.148;2022-07-21T07:27:52;25.20;44.20
19248;DHT22;9758;48.640;8.148;2022-07-21T07:30:22;25.20;44.10
19248;DHT22;9758;48.640;8.148;2022-07-21T07:32:48;25.20;44.10
19248;DHT22;9758;48.640;8.148;2022-07-21T07:35:15;25.20;44.20
19248;DHT22;9758;48.640;8.148;2022-07-21T07:37:45;25.30;44.20
19248;DHT22;9758;48.640;8.148;2022-07-21T07:40:15;25.30;44.30
19248;DHT22;9758;48.640;8.148;2022-07-21T07:42:42;25.40;44.20
19248;DHT22;9758;48.640;8.148;2022-07-21T07:45:10;25.40;44.10
19248;DHT22;9758;48.640;8.148;2022-07-21T07:47:37;25.40;44.10
19248;DHT22;9758;48.640;8.148;2022-07-21T07:50:06;25.40;44.10
19248;DHT22;9758;48.640;8.148;2022-07-21T07:52:36;25.50;44.10
19248;DHT22;9758;48.640;8.148;2022-07-21T07:55:05;25.50;44.10
19248;DHT22;9758;48.640;8.148;2022-07-21T07:57:36;25.50;44.70
19248;DHT22;9758;48.640;8.148;2022-07-21T08:00:05;25.60;44.10
19248;DHT22;9758;48.640;8.148;2022-07-21T08:02:33;25.60;44.10
19248;DHT22;9758;48.640;8.148;2022-07-21T08:05:00;25.60;44.00
19248;DHT22;9758;48.640;8.148;2022-07-21T08:07:27;25.60;44.00
19248;DHT22;9758;48.640;8.148;2022-07-21T08:09:53;25.60;44.00
19248;DHT22;9758;48.640;8.148;2022-07-21T08:12:21;25.70;44.20
19248;DHT22;9758;48.640;8.148;2022-07-21T08:14:48;25.80;44.30
19248;DHT22;9758;48.640;8.148;2022-07-21T08:17:15;25.90;44.30
19248;DHT22;9758;48.640;8.148;2022-07-21T08:19:42;26.00;44.20
19248;DHT22;9758;48.640;8.148;2022-07-21T08:22:17;26.10;44.10
19248;DHT22;9758;48.640;8.148;2022-07-21T08:24:44;26.30;44.10
19248;DHT22;9758;48.640;8.148;2022-07-21T08:27:10;26.30;43.90
19248;DHT22;9758;48.640;8.148;2022-07-21T08:29:39;26.40;43.90
19248;DHT22;9758;48.640;8.148;2022-07-21T08:32:06;26.50;44.00
19248;DHT22;9758;48.640;8.148;2022-07-21T08:34:32;26.60;43.90
19248;DHT22;9758;48.640;8.148;2022-07-21T08:36:59;26.70;43.70
19248;DHT22;9758;48.640;8.148;2022-07-21T08:39:26;26.70;43.70
19248;DHT22;9758;48.640;8.148;2022-07-21T08:41:53;26.80;43.60
19248;DHT22;9758;48.640;8.148;2022-07-21T08:44:20;26.80;43.50
19248;DHT22;9758;48.640;8.148;2022-07-21T08:46:50;26.90;43.50
19248;DHT22;9758;48.640;8.148;2022-07-21T08:49:20;26.90;43.40
19248;DHT22;9758;48.640;8.148;2022-07-21T08:51:48;26.80;43.30
19248;DHT22;9758;48.640;8.148;2022-07-21T08:54:16;26.80;43.40
19248;DHT22;9758;48.640;8.148;2022-07-21T08:56:43;26.80;43.50
19248;DHT22;9758;48.640;8.148;2022-07-21T08:59:10;26.80;43.40
19248;DHT22;9758;48.640;8.148;2022-07-21T09:01:37;26.80;43.50
19248;DHT22;9758;48.640;8.148;2022-07-21T09:04:21;26.80;43.60
19248;DHT22;9758;48.640;8.148;2022-07-21T09:06:54;26.70;43.50
19248;DHT22;9758;48.640;8.148;2022-07-21T09:09:22;26.70;43.40
19248;DHT22;9758;48.640;8.148;2022-07-21T09:11:50;26.70;43.40
19248;DHT22;9758;48.640;8.148;2022-07-21T09:14:19;26.60;43.50
19248;DHT22;9758;48.640;8.148;2022-07-21T09:16:58;26.60;43.50
19248;DHT22;9758;48.640;8.148;2022-07-21T09:19:28;26.70;43.40
19248;DHT22;9758;48.640;8.148;2022-07-21T09:21:59;26.70;43.30
19248;DHT22;9758;48.640;8.148;2022-07-21T09:24:28;26.70;43.30
19248;DHT22;9758;48.640;8.148;2022-07-21T09:26:59;26.70;43.40
19248;DHT22;9758;48.640;8.148;2022-07-21T09:29:34;26.80;43.40
19248;DHT22;9758;48.640;8.148;2022-07-21T09:32:12;26.80;43.90
19248;DHT22;9758;48.640;8.148;2022-07-21T09:34:41;26.90;43.40
19248;DHT22;9758;48.640;8.148;2022-07-21T09:37:08;27.10;43.30
19248;DHT22;9758;48.640;8.148;2022-07-21T09:39:42;27.10;43.20
19248;DHT22;9758;48.640;8.148;2022-07-21T09:42:15;27.30;43.20
19248;DHT22;9758;48.640;8.148;2022-07-21T09:44:44;27.40;43.20
19248;DHT22;9758;48.640;8.148;2022-07-21T09:47:19;27.60;43.00
19248;DHT22;9758;48.640;8.148;2022-07-21T09:49:47;27.60;42.70
19248;DHT22;9758;48.640;8.148;2022-07-21T09:52:23;27.70;42.60
19248;DHT22;9758;48.640;8.148;2022-07-21T09:54:51;27.70;42.50
19248;DHT22;9758;48.640;8.148;2022-07-21T09:57:20;27.60;42.40
19248;DHT22;9758;48.640;8.148;2022-07-21T09:59:48;27.70;42.40
19248;DHT22;9758;48.640;8.148;2022-07-21T10:02:19;27.70;42.50
19248;DHT22;9758;48.640;8.148;2022-07-21T10:04:53;27.70;42.50
19248;DHT22;9758;48.640;8.148;2022-07-21T10:07:22;27.70;42.60
19248;DHT22;9758;48.640;8.148;2022-07-21T10:09:48;27.70;42.70
19248;DHT22;9758;48.640;8.148;2022-07-21T10:12:16;27.90;42.70
19248;DHT22;9758;48.640;8.148;2022-07-21T10:14:43;28.00;42.50
19248;DHT22;9758;48.640;8.148;2022-07-21T10:17:09;28.10;42.50
19248;DHT22;9758;48.640;8.148;2022-07-21T10:19:42;28.10;42.40
19248;DHT22;9758;48.640;8.148;2022-07-21T10:22:19;28.20;42.30
19248;DHT22;9758;48.640;8.148;2022-07-21T10:24:48;28.30;42.10
19248;DHT22;9758;48.640;8.148;2022-07-21T10:27:15;28.40;42.60
19248;DHT22;9758;48.640;8.148;2022-07-21T10:29:56;28.40;41.90
19248;DHT22;9758;48.640;8.148;2022-07-21T10:32:25;28.30;41.80
19248;DHT22;9758;48.640;8.148;2022-07-21T10:34:53;28.20;41.80
19248;DHT22;9758;48.640;8.148;2022-07-21T10:37:44;28.20;41.80
19248;DHT22;9758;48.640;8.148;2022-07-21T10:40:35;28.10;41.90
19248;DHT22;9758;48.640;8.148;2022-07-21T10:43:40;28.10;42.10
19248;DHT22;9758;48.640;8.148;2022-07-21T10:49:41;28.20;42.20
19248;DHT22;9758;48.640;8.148;2022-07-21T10:55:16;28.30;41.90
19248;DHT22;9758;48.640;8.148;2022-07-21T10:58:23;28.40;41.80
19248;DHT22;9758;48.640;8.148;2022-07-21T11:00:51;28.40;41.60
19248;DHT22;9758;48.640;8.148;2022-07-21T11:03:23;28.50;41.60
19248;DHT22;9758;48.640;8.148;2022-07-21T11:06:16;28.40;41.60
19248;DHT22;9758;48.640;8.148;2022-07-21T11:08:44;28.40;41.60
19248;DHT22;9758;48.640;8.148;2022-07-21T11:11:14;28.40;41.60
19248;DHT22;9758;48.640;8.148;2022-07-21T11:14:04;28.40;41.50
19248;DHT22;9758;48.640;8.148;2022-07-21T11:16:56;28.40;41.50
19248;DHT22;9758;48.640;8.148;2022-07-21T11:19:43;28.40;41.50
19248;DHT22;9758;48.640;8.148;2022-07-21T11:22:15;28.40;41.20
19248;DHT22;9758;48.640;8.148;2022-07-21T11:24:44;28.40;41.30
19248;DHT22;9758;48.640;8.148;2022-07-21T11:27:14;28.40;41.40
19248;DHT22;9758;48.640;8.148;2022-07-21T11:29:43;28.40;41.50
19248;DHT22;9758;48.640;8.148;2022-07-21T11:32:12;28.50;41.60
19248;DHT22;9758;48.640;8.148;2022-07-21T11:34:41;28.50;41.50
19248;DHT22;9758;48.640;8.148;2022-07-21T11:37:10;28.60;41.40
19248;DHT22;9758;48.640;8.148;2022-07-21T11:39:37;28.60;41.30
19248;DHT22;9758;48.640;8.148;2022-07-21T11:42:06;28.70;41.30
19248;DHT22;9758;48.640;8.148;2022-07-21T11:44:35;28.70;41.30
19248;DHT22;9758;48.640;8.148;2022-07-21T11:47:04;28.70;41.20
19248;DHT22;9758;48.640;8.148;2022-07-21T11:49:32;28.70;41.10
19248;DHT22;9758;48.640;8.148;2022-07-21T11:52:01;28.70;41.00
19248;DHT22;9758;48.640;8.148;2022-07-21T11:54:30;28.60;41.00
19248;DHT22;9758;48.640;8.148;2022-07-21T11:56:58;28.60;41.10
19248;DHT22;9758;48.640;8.148;2022-07-21T11:59:27;28.60;41.20
19248;DHT22;9758;48.640;8.148;2022-07-21T12:01:58;28.50;41.20
19248;DHT22;9758;48.640;8.148;2022-07-21T12:04:34;28.50;41.20
19248;DHT22;9758;48.640;8.148;2022-07-21T12:07:02;28.60;41.30
19248;DHT22;9758;48.640;8.148;2022-07-21T12:09:31;28.60;41.20
19248;DHT22;9758;48.640;8.148;2022-07-21T12:11:58;28.70;41.20
19248;DHT22;9758;48.640;8.148;2022-07-21T12:14:42;28.70;41.10
19248;DHT22;9758;48.640;8.148;2022-07-21T12:17:11;28.80;41.10
19248;DHT22;9758;48.640;8.148;2022-07-21T12:19:38;28.80;41.20
19248;DHT22;9758;48.640;8.148;2022-07-21T12:22:05;28.90;41.10
19248;DHT22;9758;48.640;8.148;2022-07-21T12:24:53;28.90;40.90
19248;DHT22;9758;48.640;8.148;2022-07-21T12:27:21;28.80;40.90
19248;DHT22;9758;48.640;8.148;2022-07-21T12:29:48;28.80;41.00
19248;DHT22;9758;48.640;8.148;2022-07-21T12:32:40;28.90;41.10
19248;DHT22;9758;48.640;8.148;2022-07-21T12:35:17;28.90;41.10
19248;DHT22;9758;48.640;8.148;2022-07-21T12:37:55;29.00;41.00
19248;DHT22;9758;48.640;8.148;2022-07-21T12:40:22;29.00;40.80
19248;DHT22;9758;48.640;8.148;2022-07-21T12:42:50;29.00;40.80
19248;DHT22;9758;48.640;8.148;2022-07-21T12:45:19;29.00;40.80
19248;DHT22;9758;48.640;8.148;2022-07-21T12:48:05;29.00;40.80
19248;DHT22;9758;48.640;8.148;2022-07-21T12:50:32;29.00;40.70
19248;DHT22;9758;48.640;8.148;2022-07-21T12:52:59;29.00;40.80
19248;DHT22;9758;48.640;8.148;2022-07-21T12:55:26;28.90;40.80
19248;DHT22;9758;48.640;8.148;2022-07-21T12:57:52;28.90;40.80
19248;DHT22;9758;48.640;8.148;2022-07-21T13:00:19;28.80;40.80
19248;DHT22;9758;48.640;8.148;2022-07-21T13:02:47;28.80;40.90
19248;DHT22;9758;48.640;8.148;2022-07-21T13:05:16;28.80;40.80
19248;DHT22;9758;48.640;8.148;2022-07-21T13:07:43;28.80;40.90
19248;DHT22;9758;48.640;8.148;2022-07-21T13:10:09;28.90;41.00
19248;DHT22;9758;48.640;8.148;2022-07-21T13:12:36;29.00;40.90
19248;DHT22;9758;48.640;8.148;2022-07-21T13:15:04;29.10;40.90
19248;DHT22;9758;48.640;8.148;2022-07-21T13:17:32;29.10;40.90
19248;DHT22;9758;48.640;8.148;2022-07-21T13:19:58;29.30;41.00
19248;DHT22;9758;48.640;8.148;2022-07-21T13:22:26;29.40;40.80
19248;DHT22;9758;48.640;8.148;2022-07-21T13:24:54;29.50;40.60
19248;DHT22;9758;48.640;8.148;2022-07-21T13:27:21;29.60;40.50
19248;DHT22;9758;48.640;8.148;2022-07-21T13:29:48;29.70;40.40
19248;DHT22;9758;48.640;8.148;2022-07-21T13:32:15;29.80;40.40
19248;DHT22;9758;48.640;8.148;2022-07-21T13:34:41;29.90;40.40
19248;DHT22;9758;48.640;8.148;2022-07-21T13:37:08;29.90;40.30
19248;DHT22;9758;48.640;8.148;2022-07-21T13:39:38;30.00;40.20
19248;DHT22;9758;48.640;8.148;2022-07-21T13:42:05;30.00;40.20
19248;DHT22;9758;48.640;8.148;2022-07-21T13:44:32;30.10;41.00
19248;DHT22;9758;48.640;8.148;2022-07-21T13:46:59;30.20;40.20
19248;DHT22;9758;48.640;8.148;2022-07-21T13:49:26;30.20;40.20
19248;DHT22;9758;48.640;8.148;2022-07-21T13:51:53;30.30;40.10
19248;DHT22;9758;48.640;8.148;2022-07-21T13:54:20;30.40;40.10
19248;DHT22;9758;48.640;8.148;2022-07-21T13:56:48;30.50;40.10
19248;DHT22;9758;48.640;8.148;2022-07-21T13:59:15;30.60;40.00
19248;DHT22;9758;48.640;8.148;2022-07-21T14:01:42;30.70;39.80
19248;DHT22;9758;48.640;8.148;2022-07-21T14:04:09;30.80;39.80
19248;DHT22;9758;48.640;8.148;2022-07-21T14:06:35;30.90;39.90
19248;DHT22;9758;48.640;8.148;2022-07-21T14:09:04;30.90;39.70
19248;DHT22;9758;48.640;8.148;2022-07-21T14:11:31;31.00;39.70
19248;DHT22;9758;48.640;8.148;2022-07-21T14:13:59;31.10;39.60
19248;DHT22;9758;48.640;8.148;2022-07-21T14:16:25;31.20;39.50
19248;DHT22;9758;48.640;8.148;2022-07-21T14:18:52;31.20;39.40
19248;DHT22;9758;48.640;8.148;2022-07-21T14:21:19;31.20;39.30
19248;DHT22;9758;48.640;8.148;2022-07-21T14:23:46;31.10;39.30
19248;DHT22;9758;48.640;8.148;2022-07-21T14:26:13;31.10;39.30
19248;DHT22;9758;48.640;8.148;2022-07-21T14:28:39;31.10;39.30
19248;DHT22;9758;48.640;8.148;2022-07-21T14:31:07;31.10;39.40
19248;DHT22;9758;48.640;8.148;2022-07-21T14:33:36;31.20;39.50
19248;DHT22;9758;48.640;8.148;2022-07-21T14:36:04;31.30;39.50
19248;DHT22;9758;48.640;8.148;2022-07-21T14:38:31;31.30;39.40
19248;DHT22;9758;48.640;8.148;2022-07-21T14:40:58;31.40;39.30
19248;DHT22;9758;48.640;8.148;2022-07-21T14:43:26;31.50;39.30
19248;DHT22;9758;48.640;8.148;2022-07-21T14:45:53;31.60;39.20
19248;DHT22;9758;48.640;8.148;2022-07-21T14:48:21;31.70;39.00
19248;DHT22;9758;48.640;8.148;2022-07-21T14:50:48;31.90;39.00
19248;DHT22;9758;48.640;8.148;2022-07-21T14:53:14;31.90;38.90
19248;DHT22;9758;48.640;8.148;2022-07-21T14:55:41;32.00;38.60
19248;DHT22;9758;48.640;8.148;2022-07-21T14:58:08;32.00;38.70
19248;DHT22;9758;48.640;8.148;2022-07-21T15:00:35;32.10;38.70
19248;DHT22;9758;48.640;8.148;2022-07-21T15:03:02;32.20;38.70
19248;DHT22;9758;48.640;8.148;2022-07-21T15:05:30;32.30;38.70
19248;DHT22;9758;48.640;8.148;2022-07-21T15:07:56;32.30;38.50
19248;DHT22;9758;48.640;8.148;2022-07-21T15:10:23;32.40;38.40
19248;DHT22;9758;48.640;8.148;2022-07-21T15:12:50;32.40;38.30
19248;DHT22;9758;48.640;8.148;2022-07-21T15:15:17;32.30;38.30
19248;DHT22;9758;48.640;8.148;2022-07-21T15:17:43;32.30;38.30
19248;DHT22;9758;48.640;8.148;2022-07-21T15:20:11;32.30;38.20
19248;DHT22;9758;48.640;8.148;2022-07-21T15:22:39;32.20;38.20
19248;DHT22;9758;48.640;8.148;2022-07-21T15:25:07;32.20;38.20
19248;DHT22;9758;48.640;8.148;2022-07-21T15:27:37;32.10;38.10
19248;DHT22;9758;48.640;8.148;2022-07-21T15:30:05;32.10;38.40
19248;DHT22;9758;48.640;8.148;2022-07-21T15:32:33;32.20;39.00
19248;DHT22;9758;48.640;8.148;2022-07-21T15:34:59;32.70;39.50
19248;DHT22;9758;48.640;8.148;2022-07-21T15:37:26;33.50;39.70
19248;DHT22;9758;48.640;8.148;2022-07-21T15:39:54;34.60;39.40
19248;DHT22;9758;48.640;8.148;2022-07-21T15:42:21;35.70;38.60
19248;DHT22;9758;48.640;8.148;2022-07-21T15:44:49;36.90;37.60
19248;DHT22;9758;48.640;8.148;2022-07-21T15:47:16;38.00;36.80
19248;DHT22;9758;48.640;8.148;2022-07-21T15:49:43;38.90;36.20
19248;DHT22;9758;48.640;8.148;2022-07-21T15:52:09;39.70;35.10
19248;DHT22;9758;48.640;8.148;2022-07-21T15:54:36;40.40;34.90
19248;DHT22;9758;48.640;8.148;2022-07-21T15:57:04;41.20;34.50
19248;DHT22;9758;48.640;8.148;2022-07-21T15:59:31;41.80;33.50